Aviation Digital Data Service (ADDS)

Output produced by METARs form (1437 UTC 19 April 2019)
found at http://www.aviationweather.gov/metar/data/
 
METAR text: GMME 191430Z 31008KT 260V340 8000 SCT015 BKN023 19/11 Q1013 NOSIG
Conditions at: GMME (RABAT/SALE (RMAF, MA) observed 1430 UTC 19 April 2019
Temperature: 19.0°C (66°F)
Dewpoint: 11.0°C (52°F) [RH = 60%]
Pressure (altimeter): 29.91 inches Hg (1013.0 mb)
Winds: from the NW (310 degrees) at 9 MPH (8 knots; 4.1 m/s)
Visibility: 5 miles ( 8 km)
Ceiling: 2300 feet AGL
Clouds: scattered clouds at 1500 feet AGL
broken clouds at 2300 feet AGL
Weather: no significant weather observed at this time

METAR text: GMME 191400Z 29008KT 240V340 8000 SCT015 BKN023 19/10 Q1014 NOSIG
Conditions at: GMME (RABAT/SALE (RMAF, MA) observed 1400 UTC 19 April 2019
Temperature: 19.0°C (66°F)
Dewpoint: 10.0°C (50°F) [RH = 56%]
Pressure (altimeter): 29.94 inches Hg (1014.0 mb)
Winds: from the WNW (290 degrees) at 9 MPH (8 knots; 4.1 m/s)
Visibility: 5 miles ( 8 km)
Ceiling: 2300 feet AGL
Clouds: scattered clouds at 1500 feet AGL
broken clouds at 2300 feet AGL
Weather: no significant weather observed at this time

METAR text: GMME 191330Z 29010KT 240V330 8000 SCT015 BKN023 18/10 Q1014 NOSIG
Conditions at: GMME (RABAT/SALE (RMAF, MA) observed 1330 UTC 19 April 2019
Temperature: 18.0°C (64°F)
Dewpoint: 10.0°C (50°F) [RH = 59%]
Pressure (altimeter): 29.94 inches Hg (1014.0 mb)
Winds: from the WNW (290 degrees) at 12 MPH (10 knots; 5.1 m/s)
Visibility: 5 miles ( 8 km)
Ceiling: 2300 feet AGL
Clouds: scattered clouds at 1500 feet AGL
broken clouds at 2300 feet AGL
Weather: no significant weather observed at this time

METAR text: GMME 191300Z 29008KT 240V340 8000 SCT015 BKN023 19/11 Q1014 NOSIG
Conditions at: GMME (RABAT/SALE (RMAF, MA) observed 1300 UTC 19 April 2019
Temperature: 19.0°C (66°F)
Dewpoint: 11.0°C (52°F) [RH = 60%]
Pressure (altimeter): 29.94 inches Hg (1014.0 mb)
Winds: from the WNW (290 degrees) at 9 MPH (8 knots; 4.1 m/s)
Visibility: 5 miles ( 8 km)
Ceiling: 2300 feet AGL
Clouds: scattered clouds at 1500 feet AGL
broken clouds at 2300 feet AGL
Weather: no significant weather observed at this time

METAR text: GMME 191230Z 30007KT 270V330 8000 SCT015 BKN023 18/10 Q1015 NOSIG
Conditions at: GMME (RABAT/SALE (RMAF, MA) observed 1230 UTC 19 April 2019
Temperature: 18.0°C (64°F)
Dewpoint: 10.0°C (50°F) [RH = 59%]
Pressure (altimeter): 29.97 inches Hg (1015.0 mb)
Winds: from the WNW (300 degrees) at 8 MPH (7 knots; 3.6 m/s)
Visibility: 5 miles ( 8 km)
Ceiling: 2300 feet AGL
Clouds: scattered clouds at 1500 feet AGL
broken clouds at 2300 feet AGL
Weather: no significant weather observed at this time

METAR text: GMME 191200Z 28008KT 250V330 8000 SCT015 BKN023 18/10 Q1015 NOSIG
Conditions at: GMME (RABAT/SALE (RMAF, MA) observed 1200 UTC 19 April 2019
Temperature: 18.0°C (64°F)
Dewpoint: 10.0°C (50°F) [RH = 59%]
Pressure (altimeter): 29.97 inches Hg (1015.0 mb)
Winds: from the W (280 degrees) at 9 MPH (8 knots; 4.1 m/s)
Visibility: 5 miles ( 8 km)
Ceiling: 2300 feet AGL
Clouds: scattered clouds at 1500 feet AGL
broken clouds at 2300 feet AGL
Weather: no significant weather observed at this time

METAR text: GMME 191130Z 27008KT 240V310 6000 SCT015 SCT023 18/12 Q1015 NOSIG
Conditions at: GMME (RABAT/SALE (RMAF, MA) observed 1130 UTC 19 April 2019
Temperature: 18.0°C (64°F)
Dewpoint: 12.0°C (54°F) [RH = 68%]
Pressure (altimeter): 29.97 inches Hg (1015.0 mb)
Winds: from the W (270 degrees) at 9 MPH (8 knots; 4.1 m/s)
Visibility: 4 miles ( 6 km)
Ceiling: at least 12,000 feet AGL
Clouds: scattered clouds at 1500 feet AGL
scattered clouds at 2300 feet AGL
Weather: no significant weather observed at this time

METAR text: GMME 191100Z 30006KT 250V340 6000 SCT015 SCT023 18/12 Q1015 NOSIG
Conditions at: GMME (RABAT/SALE (RMAF, MA) observed 1100 UTC 19 April 2019
Temperature: 18.0°C (64°F)
Dewpoint: 12.0°C (54°F) [RH = 68%]
Pressure (altimeter): 29.97 inches Hg (1015.0 mb)
Winds: from the WNW (300 degrees) at 7 MPH (6 knots; 3.1 m/s)
Visibility: 4 miles ( 6 km)
Ceiling: at least 12,000 feet AGL
Clouds: scattered clouds at 1500 feet AGL
scattered clouds at 2300 feet AGL
Weather: no significant weather observed at this time

METAR text: GMME 191030Z 27005KT 210V310 6000 SCT015 SCT023 16/12 Q1015 NOSIG
Conditions at: GMME (RABAT/SALE (RMAF, MA) observed 1030 UTC 19 April 2019
Temperature: 16.0°C (61°F)
Dewpoint: 12.0°C (54°F) [RH = 77%]
Pressure (altimeter): 29.97 inches Hg (1015.0 mb)
Winds: from the W (270 degrees) at 6 MPH (5 knots; 2.6 m/s)
Visibility: 4 miles ( 6 km)
Ceiling: at least 12,000 feet AGL
Clouds: scattered clouds at 1500 feet AGL
scattered clouds at 2300 feet AGL
Weather: no significant weather observed at this time

METAR text: GMME 191000Z 22005KT 190V250 6000 FEW008 SCT015TCU BKN023 15/14 Q1015 RERA NOSIG
Conditions at: GMME (RABAT/SALE (RMAF, MA) observed 1000 UTC 19 April 2019
Temperature: 15.0°C (59°F)
Dewpoint: 14.0°C (57°F) [RH = 94%]
Pressure (altimeter): 29.97 inches Hg (1015.0 mb)
Winds: from the SW (220 degrees) at 6 MPH (5 knots; 2.6 m/s)
Visibility: 4 miles ( 6 km)
Ceiling: 2300 feet AGL
Clouds: few clouds at 800 feet AGL
scattered clouds at 1500 feet AGL
broken clouds at 2300 feet AGL
Weather: no significant weather observed at this time

METAR text: GMME 190930Z 21006KT 4000 SHRA SCT008 BKN015TCU BKN023 13/12 Q1015 TEMPO 5000 RA
Conditions at: GMME (RABAT/SALE (RMAF, MA) observed 0930 UTC 19 April 2019
Temperature: 13.0°C (55°F)
Dewpoint: 12.0°C (54°F) [RH = 94%]
Pressure (altimeter): 29.97 inches Hg (1015.0 mb)
Winds: from the SSW (210 degrees) at 7 MPH (6 knots; 3.1 m/s)
Visibility: 2.49 miles (4.01 km)
Ceiling: 1500 feet AGL
Clouds: scattered clouds at 800 feet AGL
broken clouds at 1500 feet AGL
broken clouds at 2300 feet AGL
Weather: SHRA  (rain showers)

METAR text: GMME 190900Z 20005KT 150V240 4000 SHRA SCT008 BKN015TCU BKN023 14/13 Q1015 TEMPO 5000 RA
Conditions at: GMME (RABAT/SALE (RMAF, MA) observed 0900 UTC 19 April 2019
Temperature: 14.0°C (57°F)
Dewpoint: 13.0°C (55°F) [RH = 94%]
Pressure (altimeter): 29.97 inches Hg (1015.0 mb)
Winds: from the SSW (200 degrees) at 6 MPH (5 knots; 2.6 m/s)
Visibility: 2.49 miles (4.01 km)
Ceiling: 1500 feet AGL
Clouds: scattered clouds at 800 feet AGL
broken clouds at 1500 feet AGL
broken clouds at 2300 feet AGL
Weather: SHRA  (rain showers)

METAR text: GMME 190830Z VRB02KT 6000 FEW008 SCT015TCU BKN023 13/12 Q1015 TEMPO RA
Conditions at: GMME (RABAT/SALE (RMAF, MA) observed 0830 UTC 19 April 2019
Temperature: 13.0°C (55°F)
Dewpoint: 12.0°C (54°F) [RH = 94%]
Pressure (altimeter): 29.97 inches Hg (1015.0 mb)
Winds: variable direction winds at 2 MPH (2 knots; 1.0 m/s)
Visibility: 4 miles ( 6 km)
Ceiling: 2300 feet AGL
Clouds: few clouds at 800 feet AGL
scattered clouds at 1500 feet AGL
broken clouds at 2300 feet AGL
Weather: no significant weather observed at this time

METAR text: GMME 190800Z 20006KT 140V240 5000 SCT008 SCT015TCU BKN023 13/11 Q1014 RESHRA TEMPO RA
Conditions at: GMME (RABAT/SALE (RMAF, MA) observed 0800 UTC 19 April 2019
Temperature: 13.0°C (55°F)
Dewpoint: 11.0°C (52°F) [RH = 88%]
Pressure (altimeter): 29.94 inches Hg (1014.0 mb)
Winds: from the SSW (200 degrees) at 7 MPH (6 knots; 3.1 m/s)
Visibility: 3 miles ( 5 km)
Ceiling: 2300 feet AGL
Clouds: scattered clouds at 800 feet AGL
scattered clouds at 1500 feet AGL
broken clouds at 2300 feet AGL
Weather: no significant weather observed at this time

METAR text: GMME 190734Z 19010KT 2000 SHRA SCT015 BKN023 OVC070 12/11 Q1014 RERA TEMPO 5000 RA
Conditions at: GMME (RABAT/SALE (RMAF, MA) observed 0734 UTC 19 April 2019
Temperature: 12.0°C (54°F)
Dewpoint: 11.0°C (52°F) [RH = 94%]
Pressure (altimeter): 29.94 inches Hg (1014.0 mb)
Winds: from the S (190 degrees) at 12 MPH (10 knots; 5.1 m/s)
Visibility: 1.24 miles (2.00 km)
Ceiling: 2300 feet AGL
Clouds: scattered clouds at 1500 feet AGL
broken clouds at 2300 feet AGL
overcast cloud deck at 7000 feet AGL
Weather: SHRA  (rain showers)

METAR text: GMME 190730Z 20008KT 160V240 5000 SCT015 BKN023 OVC070 13/11 Q1015 RERA TEMPO RA
Conditions at: GMME (RABAT/SALE (RMAF, MA) observed 0730 UTC 19 April 2019
Temperature: 13.0°C (55°F)
Dewpoint: 11.0°C (52°F) [RH = 88%]
Pressure (altimeter): 29.97 inches Hg (1015.0 mb)
Winds: from the SSW (200 degrees) at 9 MPH (8 knots; 4.1 m/s)
Visibility: 3 miles ( 5 km)
Ceiling: 2300 feet AGL
Clouds: scattered clouds at 1500 feet AGL
broken clouds at 2300 feet AGL
overcast cloud deck at 7000 feet AGL
Weather: no significant weather observed at this time

METAR text: GMME 190700Z 20009KT 5000 RA SCT015 BKN023 OVC070 13/11 Q1014 RESHRA NOSIG
Conditions at: GMME (RABAT/SALE (RMAF, MA) observed 0700 UTC 19 April 2019
Temperature: 13.0°C (55°F)
Dewpoint: 11.0°C (52°F) [RH = 88%]
Pressure (altimeter): 29.94 inches Hg (1014.0 mb)
Winds: from the SSW (200 degrees) at 10 MPH (9 knots; 4.6 m/s)
Visibility: 3 miles ( 5 km)
Ceiling: 2300 feet AGL
Clouds: scattered clouds at 1500 feet AGL
broken clouds at 2300 feet AGL
overcast cloud deck at 7000 feet AGL
Weather: RA  (moderate rain)

METAR text: GMME 190630Z 19008KT 5000 SHRA SCT015 BKN023 BKN070 12/11 Q1014 NOSIG
Conditions at: GMME (RABAT/SALE (RMAF, MA) observed 0630 UTC 19 April 2019
Temperature: 12.0°C (54°F)
Dewpoint: 11.0°C (52°F) [RH = 94%]
Pressure (altimeter): 29.94 inches Hg (1014.0 mb)
Winds: from the S (190 degrees) at 9 MPH (8 knots; 4.1 m/s)
Visibility: 3 miles ( 5 km)
Ceiling: 2300 feet AGL
Clouds: scattered clouds at 1500 feet AGL
broken clouds at 2300 feet AGL
broken clouds at 7000 feet AGL
Weather: SHRA  (rain showers)

METAR text: GMME 190600Z 19007KT 8000 SHRA FEW015 SCT023 BKN070 13/10 Q1014 NOSIG
Conditions at: GMME (RABAT/SALE (RMAF, MA) observed 0600 UTC 19 April 2019
Temperature: 13.0°C (55°F)
Dewpoint: 10.0°C (50°F) [RH = 82%]
Pressure (altimeter): 29.94 inches Hg (1014.0 mb)
Winds: from the S (190 degrees) at 8 MPH (7 knots; 3.6 m/s)
Visibility: 5 miles ( 8 km)
Ceiling: 7000 feet AGL
Clouds: few clouds at 1500 feet AGL
scattered clouds at 2300 feet AGL
broken clouds at 7000 feet AGL
Weather: SHRA  (rain showers)

METAR text: GMME 190530Z 19007KT 9999 FEW015 SCT023 BKN070 12/10 Q1014 RESHRA NOSIG
Conditions at: GMME (RABAT/SALE (RMAF, MA) observed 0530 UTC 19 April 2019
Temperature: 12.0°C (54°F)
Dewpoint: 10.0°C (50°F) [RH = 88%]
Pressure (altimeter): 29.94 inches Hg (1014.0 mb)
Winds: from the S (190 degrees) at 8 MPH (7 knots; 3.6 m/s)
Visibility: 6 or more miles (10+ km)
Ceiling: 7000 feet AGL
Clouds: few clouds at 1500 feet AGL
scattered clouds at 2300 feet AGL
broken clouds at 7000 feet AGL
Weather: no significant weather observed at this time

METAR text: GMME 190500Z 20007KT 9999 FEW015 SCT023 BKN070 13/10 Q1014 NOSIG
Conditions at: GMME (RABAT/SALE (RMAF, MA) observed 0500 UTC 19 April 2019
Temperature: 13.0°C (55°F)
Dewpoint: 10.0°C (50°F) [RH = 82%]
Pressure (altimeter): 29.94 inches Hg (1014.0 mb)
Winds: from the SSW (200 degrees) at 8 MPH (7 knots; 3.6 m/s)
Visibility: 6 or more miles (10+ km)
Ceiling: 7000 feet AGL
Clouds: few clouds at 1500 feet AGL
scattered clouds at 2300 feet AGL
broken clouds at 7000 feet AGL
Weather: no significant weather observed at this time

METAR text: GMME 190430Z 19006KT 9999 FEW015 SCT023 BKN070 12/10 Q1014 NOSIG
Conditions at: GMME (RABAT/SALE (RMAF, MA) observed 0430 UTC 19 April 2019
Temperature: 12.0°C (54°F)
Dewpoint: 10.0°C (50°F) [RH = 88%]
Pressure (altimeter): 29.94 inches Hg (1014.0 mb)
Winds: from the S (190 degrees) at 7 MPH (6 knots; 3.1 m/s)
Visibility: 6 or more miles (10+ km)
Ceiling: 7000 feet AGL
Clouds: few clouds at 1500 feet AGL
scattered clouds at 2300 feet AGL
broken clouds at 7000 feet AGL
Weather: no significant weather observed at this time

METAR text: GMME 190400Z 18006KT 9999 FEW015 SCT023 12/09 Q1014 NOSIG
Conditions at: GMME (RABAT/SALE (RMAF, MA) observed 0400 UTC 19 April 2019
Temperature: 12.0°C (54°F)
Dewpoint: 9.0°C (48°F) [RH = 82%]
Pressure (altimeter): 29.94 inches Hg (1014.0 mb)
Winds: from the S (180 degrees) at 7 MPH (6 knots; 3.1 m/s)
Visibility: 6 or more miles (10+ km)
Ceiling: at least 12,000 feet AGL
Clouds: few clouds at 1500 feet AGL
scattered clouds at 2300 feet AGL
Weather: no significant weather observed at this time

METAR text: GMME 190330Z 18006KT 9999 FEW015 SCT023 12/09 Q1014 NOSIG
Conditions at: GMME (RABAT/SALE (RMAF, MA) observed 0330 UTC 19 April 2019
Temperature: 12.0°C (54°F)
Dewpoint: 9.0°C (48°F) [RH = 82%]
Pressure (altimeter): 29.94 inches Hg (1014.0 mb)
Winds: from the S (180 degrees) at 7 MPH (6 knots; 3.1 m/s)
Visibility: 6 or more miles (10+ km)
Ceiling: at least 12,000 feet AGL
Clouds: few clouds at 1500 feet AGL
scattered clouds at 2300 feet AGL
Weather: no significant weather observed at this time

METAR text: GMME 190300Z 18005KT 9999 FEW015 SCT023 12/09 Q1014 NOSIG
Conditions at: GMME (RABAT/SALE (RMAF, MA) observed 0300 UTC 19 April 2019
Temperature: 12.0°C (54°F)
Dewpoint: 9.0°C (48°F) [RH = 82%]
Pressure (altimeter): 29.94 inches Hg (1014.0 mb)
Winds: from the S (180 degrees) at 6 MPH (5 knots; 2.6 m/s)
Visibility: 6 or more miles (10+ km)
Ceiling: at least 12,000 feet AGL
Clouds: few clouds at 1500 feet AGL
scattered clouds at 2300 feet AGL
Weather: no significant weather observed at this time

METAR text: GMME 190230Z 18005KT 140V200 9999 FEW015 SCT023 12/09 Q1014 NOSIG
Conditions at: GMME (RABAT/SALE (RMAF, MA) observed 0230 UTC 19 April 2019
Temperature: 12.0°C (54°F)
Dewpoint: 9.0°C (48°F) [RH = 82%]
Pressure (altimeter): 29.94 inches Hg (1014.0 mb)
Winds: from the S (180 degrees) at 6 MPH (5 knots; 2.6 m/s)
Visibility: 6 or more miles (10+ km)
Ceiling: at least 12,000 feet AGL
Clouds: few clouds at 1500 feet AGL
scattered clouds at 2300 feet AGL
Weather: no significant weather observed at this time

METAR text: GMME 190200Z 18006KT 9999 FEW015 SCT023 12/09 Q1015 NOSIG
Conditions at: GMME (RABAT/SALE (RMAF, MA) observed 0200 UTC 19 April 2019
Temperature: 12.0°C (54°F)
Dewpoint: 9.0°C (48°F) [RH = 82%]
Pressure (altimeter): 29.97 inches Hg (1015.0 mb)
Winds: from the S (180 degrees) at 7 MPH (6 knots; 3.1 m/s)
Visibility: 6 or more miles (10+ km)
Ceiling: at least 12,000 feet AGL
Clouds: few clouds at 1500 feet AGL
scattered clouds at 2300 feet AGL
Weather: no significant weather observed at this time

METAR text: GMME 190130Z 18005KT 9999 FEW015 SCT023 12/09 Q1015 NOSIG
Conditions at: GMME (RABAT/SALE (RMAF, MA) observed 0130 UTC 19 April 2019
Temperature: 12.0°C (54°F)
Dewpoint: 9.0°C (48°F) [RH = 82%]
Pressure (altimeter): 29.97 inches Hg (1015.0 mb)
Winds: from the S (180 degrees) at 6 MPH (5 knots; 2.6 m/s)
Visibility: 6 or more miles (10+ km)
Ceiling: at least 12,000 feet AGL
Clouds: few clouds at 1500 feet AGL
scattered clouds at 2300 feet AGL
Weather: no significant weather observed at this time

METAR text: GMME 190100Z 17003KT 120V200 9999 FEW015 SCT023 12/09 Q1015 NOSIG
Conditions at: GMME (RABAT/SALE (RMAF, MA) observed 0100 UTC 19 April 2019
Temperature: 12.0°C (54°F)
Dewpoint: 9.0°C (48°F) [RH = 82%]
Pressure (altimeter): 29.97 inches Hg (1015.0 mb)
Winds: from the S (170 degrees) at 3 MPH (3 knots; 1.5 m/s)
Visibility: 6 or more miles (10+ km)
Ceiling: at least 12,000 feet AGL
Clouds: few clouds at 1500 feet AGL
scattered clouds at 2300 feet AGL
Weather: no significant weather observed at this time

METAR text: GMME 190030Z VRB02KT 9999 R21///// FEW015 SCT023 12/09 Q1015 NOSIG
Conditions at: GMME (RABAT/SALE (RMAF, MA) observed 0030 UTC 19 April 2019
Temperature: 12.0°C (54°F)
Dewpoint: 9.0°C (48°F) [RH = 82%]
Pressure (altimeter): 29.97 inches Hg (1015.0 mb)
Winds: variable direction winds at 2 MPH (2 knots; 1.0 m/s)
Visibility: 6 or more miles (10+ km)
Ceiling: at least 12,000 feet AGL
Clouds: few clouds at 1500 feet AGL
scattered clouds at 2300 feet AGL
Weather: no significant weather observed at this time

METAR text: GMME 190000Z VRB02KT 9999 FEW015 SCT023 13/09 Q1016 NOSIG
Conditions at: GMME (RABAT/SALE (RMAF, MA) observed 0000 UTC 19 April 2019
Temperature: 13.0°C (55°F)
Dewpoint: 9.0°C (48°F) [RH = 77%]
Pressure (altimeter): 30.00 inches Hg (1016.0 mb)
Winds: variable direction winds at 2 MPH (2 knots; 1.0 m/s)
Visibility: 6 or more miles (10+ km)
Ceiling: at least 12,000 feet AGL
Clouds: few clouds at 1500 feet AGL
scattered clouds at 2300 feet AGL
Weather: no significant weather observed at this time

METAR text: GMME 182330Z VRB02KT 9999 FEW015 SCT023 13/09 Q1016 NOSIG
Conditions at: GMME (RABAT/SALE (RMAF, MA) observed 2330 UTC 18 April 2019
Temperature: 13.0°C (55°F)
Dewpoint: 9.0°C (48°F) [RH = 77%]
Pressure (altimeter): 30.00 inches Hg (1016.0 mb)
Winds: variable direction winds at 2 MPH (2 knots; 1.0 m/s)
Visibility: 6 or more miles (10+ km)
Ceiling: at least 12,000 feet AGL
Clouds: few clouds at 1500 feet AGL
scattered clouds at 2300 feet AGL
Weather: no significant weather observed at this time

METAR text: GMME 182300Z 27003KT 230V310 9999 FEW015 SCT023 13/09 Q1016 NOSIG
Conditions at: GMME (RABAT/SALE (RMAF, MA) observed 2300 UTC 18 April 2019
Temperature: 13.0°C (55°F)
Dewpoint: 9.0°C (48°F) [RH = 77%]
Pressure (altimeter): 30.00 inches Hg (1016.0 mb)
Winds: from the W (270 degrees) at 3 MPH (3 knots; 1.5 m/s)
Visibility: 6 or more miles (10+ km)
Ceiling: at least 12,000 feet AGL
Clouds: few clouds at 1500 feet AGL
scattered clouds at 2300 feet AGL
Weather: no significant weather observed at this time

METAR text: GMME 182230Z VRB02KT 9999 FEW015 SCT023 14/10 Q1016 NOSIG
Conditions at: GMME (RABAT/SALE (RMAF, MA) observed 2230 UTC 18 April 2019
Temperature: 14.0°C (57°F)
Dewpoint: 10.0°C (50°F) [RH = 77%]
Pressure (altimeter): 30.00 inches Hg (1016.0 mb)
Winds: variable direction winds at 2 MPH (2 knots; 1.0 m/s)
Visibility: 6 or more miles (10+ km)
Ceiling: at least 12,000 feet AGL
Clouds: few clouds at 1500 feet AGL
scattered clouds at 2300 feet AGL
Weather: no significant weather observed at this time

METAR text: GMME 182200Z 30005KT 280V340 9999 FEW015 SCT023 15/10 Q1016 NOSIG
Conditions at: GMME (RABAT/SALE (RMAF, MA) observed 2200 UTC 18 April 2019
Temperature: 15.0°C (59°F)
Dewpoint: 10.0°C (50°F) [RH = 72%]
Pressure (altimeter): 30.00 inches Hg (1016.0 mb)
Winds: from the WNW (300 degrees) at 6 MPH (5 knots; 2.6 m/s)
Visibility: 6 or more miles (10+ km)
Ceiling: at least 12,000 feet AGL
Clouds: few clouds at 1500 feet AGL
scattered clouds at 2300 feet AGL
Weather: no significant weather observed at this time

METAR text: GMME 182130Z 31003KT 9999 FEW015 SCT023 15/10 Q1016 NOSIG
Conditions at: GMME (RABAT/SALE (RMAF, MA) observed 2130 UTC 18 April 2019
Temperature: 15.0°C (59°F)
Dewpoint: 10.0°C (50°F) [RH = 72%]
Pressure (altimeter): 30.00 inches Hg (1016.0 mb)
Winds: from the NW (310 degrees) at 3 MPH (3 knots; 1.5 m/s)
Visibility: 6 or more miles (10+ km)
Ceiling: at least 12,000 feet AGL
Clouds: few clouds at 1500 feet AGL
scattered clouds at 2300 feet AGL
Weather: no significant weather observed at this time

METAR text: GMME 182100Z 32003KT 260V020 9999 FEW015 SCT023 15/09 Q1016 NOSIG
Conditions at: GMME (RABAT/SALE (RMAF, MA) observed 2100 UTC 18 April 2019
Temperature: 15.0°C (59°F)
Dewpoint: 9.0°C (48°F) [RH = 67%]
Pressure (altimeter): 30.00 inches Hg (1016.0 mb)
Winds: from the NW (320 degrees) at 3 MPH (3 knots; 1.5 m/s)
Visibility: 6 or more miles (10+ km)
Ceiling: at least 12,000 feet AGL
Clouds: few clouds at 1500 feet AGL
scattered clouds at 2300 feet AGL
Weather: no significant weather observed at this time

METAR text: GMME 182030Z 32005KT 260V360 9999 FEW015 SCT023 16/10 Q1016 NOSIG
Conditions at: GMME (RABAT/SALE (RMAF, MA) observed 2030 UTC 18 April 2019
Temperature: 16.0°C (61°F)
Dewpoint: 10.0°C (50°F) [RH = 68%]
Pressure (altimeter): 30.00 inches Hg (1016.0 mb)
Winds: from the NW (320 degrees) at 6 MPH (5 knots; 2.6 m/s)
Visibility: 6 or more miles (10+ km)
Ceiling: at least 12,000 feet AGL
Clouds: few clouds at 1500 feet AGL
scattered clouds at 2300 feet AGL
Weather: no significant weather observed at this time

METAR text: GMME 182000Z 30006KT 240V340 9999 FEW015 SCT023 16/10 Q1016 NOSIG
Conditions at: GMME (RABAT/SALE (RMAF, MA) observed 2000 UTC 18 April 2019
Temperature: 16.0°C (61°F)
Dewpoint: 10.0°C (50°F) [RH = 68%]
Pressure (altimeter): 30.00 inches Hg (1016.0 mb)
Winds: from the WNW (300 degrees) at 7 MPH (6 knots; 3.1 m/s)
Visibility: 6 or more miles (10+ km)
Ceiling: at least 12,000 feet AGL
Clouds: few clouds at 1500 feet AGL
scattered clouds at 2300 feet AGL
Weather: no significant weather observed at this time

METAR text: GMME 181930Z 31007KT 280V350 9999 FEW015 SCT023 16/10 Q1015 NOSIG
Conditions at: GMME (RABAT/SALE (RMAF, MA) observed 1930 UTC 18 April 2019
Temperature: 16.0°C (61°F)
Dewpoint: 10.0°C (50°F) [RH = 68%]
Pressure (altimeter): 29.97 inches Hg (1015.0 mb)
Winds: from the NW (310 degrees) at 8 MPH (7 knots; 3.6 m/s)
Visibility: 6 or more miles (10+ km)
Ceiling: at least 12,000 feet AGL
Clouds: few clouds at 1500 feet AGL
scattered clouds at 2300 feet AGL
Weather: no significant weather observed at this time

METAR text: GMME 181900Z 30009KT 270V330 9999 FEW015 SCT023 16/10 Q1015 NOSIG
Conditions at: GMME (RABAT/SALE (RMAF, MA) observed 1900 UTC 18 April 2019
Temperature: 16.0°C (61°F)
Dewpoint: 10.0°C (50°F) [RH = 68%]
Pressure (altimeter): 29.97 inches Hg (1015.0 mb)
Winds: from the WNW (300 degrees) at 10 MPH (9 knots; 4.6 m/s)
Visibility: 6 or more miles (10+ km)
Ceiling: at least 12,000 feet AGL
Clouds: few clouds at 1500 feet AGL
scattered clouds at 2300 feet AGL
Weather: no significant weather observed at this time

METAR text: GMME 181830Z 30009KT 270V330 9999 FEW015 SCT023 17/10 Q1015 NOSIG
Conditions at: GMME (RABAT/SALE (RMAF, MA) observed 1830 UTC 18 April 2019
Temperature: 17.0°C (63°F)
Dewpoint: 10.0°C (50°F) [RH = 63%]
Pressure (altimeter): 29.97 inches Hg (1015.0 mb)
Winds: from the WNW (300 degrees) at 10 MPH (9 knots; 4.6 m/s)
Visibility: 6 or more miles (10+ km)
Ceiling: at least 12,000 feet AGL
Clouds: few clouds at 1500 feet AGL
scattered clouds at 2300 feet AGL
Weather: no significant weather observed at this time

METAR text: GMME 181800Z 30009KT 260V340 9999 FEW015 SCT023 17/10 Q1014 NOSIG
Conditions at: GMME (RABAT/SALE (RMAF, MA) observed 1800 UTC 18 April 2019
Temperature: 17.0°C (63°F)
Dewpoint: 10.0°C (50°F) [RH = 63%]
Pressure (altimeter): 29.94 inches Hg (1014.0 mb)
Winds: from the WNW (300 degrees) at 10 MPH (9 knots; 4.6 m/s)
Visibility: 6 or more miles (10+ km)
Ceiling: at least 12,000 feet AGL
Clouds: few clouds at 1500 feet AGL
scattered clouds at 2300 feet AGL
Weather: no significant weather observed at this time

METAR text: GMME 181730Z 30011KT 260V320 9999 FEW015 SCT023 17/10 Q1014 NOSIG
Conditions at: GMME (RABAT/SALE (RMAF, MA) observed 1730 UTC 18 April 2019
Temperature: 17.0°C (63°F)
Dewpoint: 10.0°C (50°F) [RH = 63%]
Pressure (altimeter): 29.94 inches Hg (1014.0 mb)
Winds: from the WNW (300 degrees) at 13 MPH (11 knots; 5.7 m/s)
Visibility: 6 or more miles (10+ km)
Ceiling: at least 12,000 feet AGL
Clouds: few clouds at 1500 feet AGL
scattered clouds at 2300 feet AGL
Weather: no significant weather observed at this time

METAR text: GMME 181700Z 30011KT 270V340 9999 FEW015 SCT023 18/10 Q1014 NOSIG
Conditions at: GMME (RABAT/SALE (RMAF, MA) observed 1700 UTC 18 April 2019
Temperature: 18.0°C (64°F)
Dewpoint: 10.0°C (50°F) [RH = 59%]
Pressure (altimeter): 29.94 inches Hg (1014.0 mb)
Winds: from the WNW (300 degrees) at 13 MPH (11 knots; 5.7 m/s)
Visibility: 6 or more miles (10+ km)
Ceiling: at least 12,000 feet AGL
Clouds: few clouds at 1500 feet AGL
scattered clouds at 2300 feet AGL
Weather: no significant weather observed at this time

METAR text: GMME 181630Z 31012KT 270V340 9999 SCT026 18/10 Q1014 NOSIG
Conditions at: GMME (RABAT/SALE (RMAF, MA) observed 1630 UTC 18 April 2019
Temperature: 18.0°C (64°F)
Dewpoint: 10.0°C (50°F) [RH = 59%]
Pressure (altimeter): 29.94 inches Hg (1014.0 mb)
Winds: from the NW (310 degrees) at 14 MPH (12 knots; 6.2 m/s)
Visibility: 6 or more miles (10+ km)
Ceiling: at least 12,000 feet AGL
Clouds: scattered clouds at 2600 feet AGL
Weather: no significant weather observed at this time

METAR text: GMME 181600Z 29012KT 250V320 9999 SCT026 18/11 Q1014 NOSIG
Conditions at: GMME (RABAT/SALE (RMAF, MA) observed 1600 UTC 18 April 2019
Temperature: 18.0°C (64°F)
Dewpoint: 11.0°C (52°F) [RH = 64%]
Pressure (altimeter): 29.94 inches Hg (1014.0 mb)
Winds: from the WNW (290 degrees) at 14 MPH (12 knots; 6.2 m/s)
Visibility: 6 or more miles (10+ km)
Ceiling: at least 12,000 feet AGL
Clouds: scattered clouds at 2600 feet AGL
Weather: no significant weather observed at this time

METAR text: GMME 181530Z 28010KT 240V340 9999 SCT026 19/10 Q1014 NOSIG
Conditions at: GMME (RABAT/SALE (RMAF, MA) observed 1530 UTC 18 April 2019
Temperature: 19.0°C (66°F)
Dewpoint: 10.0°C (50°F) [RH = 56%]
Pressure (altimeter): 29.94 inches Hg (1014.0 mb)
Winds: from the W (280 degrees) at 12 MPH (10 knots; 5.1 m/s)
Visibility: 6 or more miles (10+ km)
Ceiling: at least 12,000 feet AGL
Clouds: scattered clouds at 2600 feet AGL
Weather: no significant weather observed at this time

METAR text: GMME 181500Z 30012KT 260V330 9999 SCT026 SCT080 19/08 Q1014 NOSIG
Conditions at: GMME (RABAT/SALE (RMAF, MA) observed 1500 UTC 18 April 2019
Temperature: 19.0°C (66°F)
Dewpoint: 8.0°C (46°F) [RH = 49%]
Pressure (altimeter): 29.94 inches Hg (1014.0 mb)
Winds: from the WNW (300 degrees) at 14 MPH (12 knots; 6.2 m/s)
Visibility: 6 or more miles (10+ km)
Ceiling: at least 12,000 feet AGL
Clouds: scattered clouds at 2600 feet AGL
scattered clouds at 8000 feet AGL
Weather: no significant weather observed at this time

METAR text: GMME 181430Z 28010KT 250V330 6000 SCT026 SCT080 19/09 Q1014 NOSIG
Conditions at: GMME (RABAT/SALE (RMAF, MA) observed 1430 UTC 18 April 2019
Temperature: 19.0°C (66°F)
Dewpoint: 9.0°C (48°F) [RH = 52%]
Pressure (altimeter): 29.94 inches Hg (1014.0 mb)
Winds: from the W (280 degrees) at 12 MPH (10 knots; 5.1 m/s)
Visibility: 4 miles ( 6 km)
Ceiling: at least 12,000 feet AGL
Clouds: scattered clouds at 2600 feet AGL
scattered clouds at 8000 feet AGL
Weather: no significant weather observed at this time

METAR text: GMME 181400Z 26010KT 240V320 9999 SCT026 SCT080 19/09 Q1014 NOSIG
Conditions at: GMME (RABAT/SALE (RMAF, MA) observed 1400 UTC 18 April 2019
Temperature: 19.0°C (66°F)
Dewpoint: 9.0°C (48°F) [RH = 52%]
Pressure (altimeter): 29.94 inches Hg (1014.0 mb)
Winds: from the W (260 degrees) at 12 MPH (10 knots; 5.1 m/s)
Visibility: 6 or more miles (10+ km)
Ceiling: at least 12,000 feet AGL
Clouds: scattered clouds at 2600 feet AGL
scattered clouds at 8000 feet AGL
Weather: no significant weather observed at this time

METAR text: GMME 181330Z 30010KT 250V330 6000 SCT016 SCT023 BKN080 19/09 Q1014 NOSIG
Conditions at: GMME (RABAT/SALE (RMAF, MA) observed 1330 UTC 18 April 2019
Temperature: 19.0°C (66°F)
Dewpoint: 9.0°C (48°F) [RH = 52%]
Pressure (altimeter): 29.94 inches Hg (1014.0 mb)
Winds: from the WNW (300 degrees) at 12 MPH (10 knots; 5.1 m/s)
Visibility: 4 miles ( 6 km)
Ceiling: 8000 feet AGL
Clouds: scattered clouds at 1600 feet AGL
scattered clouds at 2300 feet AGL
broken clouds at 8000 feet AGL
Weather: no significant weather observed at this time

METAR text: GMME 181300Z 28010KT 240V320 6000 SCT016 SCT023 BKN080 18/11 Q1015 NOSIG
Conditions at: GMME (RABAT/SALE (RMAF, MA) observed 1300 UTC 18 April 2019
Temperature: 18.0°C (64°F)
Dewpoint: 11.0°C (52°F) [RH = 64%]
Pressure (altimeter): 29.97 inches Hg (1015.0 mb)
Winds: from the W (280 degrees) at 12 MPH (10 knots; 5.1 m/s)
Visibility: 4 miles ( 6 km)
Ceiling: 8000 feet AGL
Clouds: scattered clouds at 1600 feet AGL
scattered clouds at 2300 feet AGL
broken clouds at 8000 feet AGL
Weather: no significant weather observed at this time

METAR text: GMME 181230Z 27012KT 230V310 6000 SCT016 SCT023 BKN080 18/11 Q1015 NOSIG
Conditions at: GMME (RABAT/SALE (RMAF, MA) observed 1230 UTC 18 April 2019
Temperature: 18.0°C (64°F)
Dewpoint: 11.0°C (52°F) [RH = 64%]
Pressure (altimeter): 29.97 inches Hg (1015.0 mb)
Winds: from the W (270 degrees) at 14 MPH (12 knots; 6.2 m/s)
Visibility: 4 miles ( 6 km)
Ceiling: 8000 feet AGL
Clouds: scattered clouds at 1600 feet AGL
scattered clouds at 2300 feet AGL
broken clouds at 8000 feet AGL
Weather: no significant weather observed at this time

METAR text: GMME 181200Z 27010KT 240V300 6000 SCT016 SCT023 BKN080 19/11 Q1015 NOSIG
Conditions at: GMME (RABAT/SALE (RMAF, MA) observed 1200 UTC 18 April 2019
Temperature: 19.0°C (66°F)
Dewpoint: 11.0°C (52°F) [RH = 60%]
Pressure (altimeter): 29.97 inches Hg (1015.0 mb)
Winds: from the W (270 degrees) at 12 MPH (10 knots; 5.1 m/s)
Visibility: 4 miles ( 6 km)
Ceiling: 8000 feet AGL
Clouds: scattered clouds at 1600 feet AGL
scattered clouds at 2300 feet AGL
broken clouds at 8000 feet AGL
Weather: no significant weather observed at this time

METAR text: GMME 181130Z 28012KT 240V310 6000 SCT016 SCT023 BKN080 18/11 Q1015 NOSIG
Conditions at: GMME (RABAT/SALE (RMAF, MA) observed 1130 UTC 18 April 2019
Temperature: 18.0°C (64°F)
Dewpoint: 11.0°C (52°F) [RH = 64%]
Pressure (altimeter): 29.97 inches Hg (1015.0 mb)
Winds: from the W (280 degrees) at 14 MPH (12 knots; 6.2 m/s)
Visibility: 4 miles ( 6 km)
Ceiling: 8000 feet AGL
Clouds: scattered clouds at 1600 feet AGL
scattered clouds at 2300 feet AGL
broken clouds at 8000 feet AGL
Weather: no significant weather observed at this time

METAR text: GMME 181100Z 26009KT 210V300 6000 SCT016 SCT023 BKN080 19/11 Q1015 NOSIG
Conditions at: GMME (RABAT/SALE (RMAF, MA) observed 1100 UTC 18 April 2019
Temperature: 19.0°C (66°F)
Dewpoint: 11.0°C (52°F) [RH = 60%]
Pressure (altimeter): 29.97 inches Hg (1015.0 mb)
Winds: from the W (260 degrees) at 10 MPH (9 knots; 4.6 m/s)
Visibility: 4 miles ( 6 km)
Ceiling: 8000 feet AGL
Clouds: scattered clouds at 1600 feet AGL
scattered clouds at 2300 feet AGL
broken clouds at 8000 feet AGL
Weather: no significant weather observed at this time

METAR text: GMME 181030Z 26013KT 6000 SCT016 SCT023 BKN080 18/12 Q1015 NOSIG
Conditions at: GMME (RABAT/SALE (RMAF, MA) observed 1030 UTC 18 April 2019
Temperature: 18.0°C (64°F)
Dewpoint: 12.0°C (54°F) [RH = 68%]
Pressure (altimeter): 29.97 inches Hg (1015.0 mb)
Winds: from the W (260 degrees) at 15 MPH (13 knots; 6.7 m/s)
Visibility: 4 miles ( 6 km)
Ceiling: 8000 feet AGL
Clouds: scattered clouds at 1600 feet AGL
scattered clouds at 2300 feet AGL
broken clouds at 8000 feet AGL
Weather: no significant weather observed at this time

METAR text: GMME 181000Z 26010KT 5000 SCT016 SCT023 BKN080 18/11 Q1015 NOSIG
Conditions at: GMME (RABAT/SALE (RMAF, MA) observed 1000 UTC 18 April 2019
Temperature: 18.0°C (64°F)
Dewpoint: 11.0°C (52°F) [RH = 64%]
Pressure (altimeter): 29.97 inches Hg (1015.0 mb)
Winds: from the W (260 degrees) at 12 MPH (10 knots; 5.1 m/s)
Visibility: 3 miles ( 5 km)
Ceiling: 8000 feet AGL
Clouds: scattered clouds at 1600 feet AGL
scattered clouds at 2300 feet AGL
broken clouds at 8000 feet AGL
Weather: no significant weather observed at this time

METAR text: GMME 180930Z 24011KT 5000 FEW010 SCT016 BKN070 17/11 Q1015 NOSIG
Conditions at: GMME (RABAT/SALE (RMAF, MA) observed 0930 UTC 18 April 2019
Temperature: 17.0°C (63°F)
Dewpoint: 11.0°C (52°F) [RH = 68%]
Pressure (altimeter): 29.97 inches Hg (1015.0 mb)
Winds: from the WSW (240 degrees) at 13 MPH (11 knots; 5.7 m/s)
Visibility: 3 miles ( 5 km)
Ceiling: 7000 feet AGL
Clouds: few clouds at 1000 feet AGL
scattered clouds at 1600 feet AGL
broken clouds at 7000 feet AGL
Weather: no significant weather observed at this time

METAR text: GMME 180900Z 23009KT 200V260 5000 FEW010 SCT016 BKN070 16/12 Q1015 NOSIG
Conditions at: GMME (RABAT/SALE (RMAF, MA) observed 0900 UTC 18 April 2019
Temperature: 16.0°C (61°F)
Dewpoint: 12.0°C (54°F) [RH = 77%]
Pressure (altimeter): 29.97 inches Hg (1015.0 mb)
Winds: from the SW (230 degrees) at 10 MPH (9 knots; 4.6 m/s)
Visibility: 3 miles ( 5 km)
Ceiling: 7000 feet AGL
Clouds: few clouds at 1000 feet AGL
scattered clouds at 1600 feet AGL
broken clouds at 7000 feet AGL
Weather: no significant weather observed at this time

METAR text: GMME 180830Z 22010KT 4000 BR DZ SCT006 SCT023 BKN070 15/13 Q1014 NOSIG
Conditions at: GMME (RABAT/SALE (RMAF, MA) observed 0830 UTC 18 April 2019
Temperature: 15.0°C (59°F)
Dewpoint: 13.0°C (55°F) [RH = 88%]
Pressure (altimeter): 29.94 inches Hg (1014.0 mb)
Winds: from the SW (220 degrees) at 12 MPH (10 knots; 5.1 m/s)
Visibility: 2.49 miles (4.01 km)
Ceiling: 7000 feet AGL
Clouds: scattered clouds at 600 feet AGL
scattered clouds at 2300 feet AGL
broken clouds at 7000 feet AGL
Weather: BR DZ  (mist, moderate drizzle)

METAR text: GMME 180800Z 20007KT 170V230 4000 BR DZ FEW003 SCT023 BKN070 14/12 Q1014 NOSIG
Conditions at: GMME (RABAT/SALE (RMAF, MA) observed 0800 UTC 18 April 2019
Temperature: 14.0°C (57°F)
Dewpoint: 12.0°C (54°F) [RH = 88%]
Pressure (altimeter): 29.94 inches Hg (1014.0 mb)
Winds: from the SSW (200 degrees) at 8 MPH (7 knots; 3.6 m/s)
Visibility: 2.49 miles (4.01 km)
Ceiling: 7000 feet AGL
Clouds: few clouds at 300 feet AGL
scattered clouds at 2300 feet AGL
broken clouds at 7000 feet AGL
Weather: BR DZ  (mist, moderate drizzle)

METAR text: GMME 180730Z 20007KT 170V230 4000 BR FEW003 SCT023 BKN070 14/12 Q1014 NOSIG
Conditions at: GMME (RABAT/SALE (RMAF, MA) observed 0730 UTC 18 April 2019
Temperature: 14.0°C (57°F)
Dewpoint: 12.0°C (54°F) [RH = 88%]
Pressure (altimeter): 29.94 inches Hg (1014.0 mb)
Winds: from the SSW (200 degrees) at 8 MPH (7 knots; 3.6 m/s)
Visibility: 2.49 miles (4.01 km)
Ceiling: 7000 feet AGL
Clouds: few clouds at 300 feet AGL
scattered clouds at 2300 feet AGL
broken clouds at 7000 feet AGL
Weather: BR  (mist)

METAR text: GMME 180700Z 21006KT 9999 SCT023 SCT070 14/12 Q1014 NOSIG
Conditions at: GMME (RABAT/SALE (RMAF, MA) observed 0700 UTC 18 April 2019
Temperature: 14.0°C (57°F)
Dewpoint: 12.0°C (54°F) [RH = 88%]
Pressure (altimeter): 29.94 inches Hg (1014.0 mb)
Winds: from the SSW (210 degrees) at 7 MPH (6 knots; 3.1 m/s)
Visibility: 6 or more miles (10+ km)
Ceiling: at least 12,000 feet AGL
Clouds: scattered clouds at 2300 feet AGL
scattered clouds at 7000 feet AGL
Weather: no significant weather observed at this time

METAR text: GMME 180630Z VRB01KT 9999 SCT023 SCT070 11/10 Q1014 NOSIG
Conditions at: GMME (RABAT/SALE (RMAF, MA) observed 0630 UTC 18 April 2019
Temperature: 11.0°C (52°F)
Dewpoint: 10.0°C (50°F) [RH = 94%]
Pressure (altimeter): 29.94 inches Hg (1014.0 mb)
Winds: variable direction winds at 1 MPH (1 knots; 0.5 m/s)
Visibility: 6 or more miles (10+ km)
Ceiling: at least 12,000 feet AGL
Clouds: scattered clouds at 2300 feet AGL
scattered clouds at 7000 feet AGL
Weather: no significant weather observed at this time

METAR text: GMME 180600Z VRB02KT 9999 SCT023 11/10 Q1014 NOSIG
Conditions at: GMME (RABAT/SALE (RMAF, MA) observed 0600 UTC 18 April 2019
Temperature: 11.0°C (52°F)
Dewpoint: 10.0°C (50°F) [RH = 94%]
Pressure (altimeter): 29.94 inches Hg (1014.0 mb)
Winds: variable direction winds at 2 MPH (2 knots; 1.0 m/s)
Visibility: 6 or more miles (10+ km)
Ceiling: at least 12,000 feet AGL
Clouds: scattered clouds at 2300 feet AGL
Weather: no significant weather observed at this time

METAR text: GMME 180530Z VRB01KT 9999 SCT023 11/09 Q1014 NOSIG
Conditions at: GMME (RABAT/SALE (RMAF, MA) observed 0530 UTC 18 April 2019
Temperature: 11.0°C (52°F)
Dewpoint: 9.0°C (48°F) [RH = 87%]
Pressure (altimeter): 29.94 inches Hg (1014.0 mb)
Winds: variable direction winds at 1 MPH (1 knots; 0.5 m/s)
Visibility: 6 or more miles (10+ km)
Ceiling: at least 12,000 feet AGL
Clouds: scattered clouds at 2300 feet AGL
Weather: no significant weather observed at this time

METAR text: GMME 180500Z VRB01KT 9999 SCT023 BKN070 11/10 Q1013 NOSIG
Conditions at: GMME (RABAT/SALE (RMAF, MA) observed 0500 UTC 18 April 2019
Temperature: 11.0°C (52°F)
Dewpoint: 10.0°C (50°F) [RH = 94%]
Pressure (altimeter): 29.91 inches Hg (1013.0 mb)
Winds: variable direction winds at 1 MPH (1 knots; 0.5 m/s)
Visibility: 6 or more miles (10+ km)
Ceiling: 7000 feet AGL
Clouds: scattered clouds at 2300 feet AGL
broken clouds at 7000 feet AGL
Weather: no significant weather observed at this time

METAR text: GMME 180430Z VRB01KT 7000 SCT023 BKN070 12/10 Q1013 NOSIG
Conditions at: GMME (RABAT/SALE (RMAF, MA) observed 0430 UTC 18 April 2019
Temperature: 12.0°C (54°F)
Dewpoint: 10.0°C (50°F) [RH = 88%]
Pressure (altimeter): 29.91 inches Hg (1013.0 mb)
Winds: variable direction winds at 1 MPH (1 knots; 0.5 m/s)
Visibility: 4 miles ( 7 km)
Ceiling: 7000 feet AGL
Clouds: scattered clouds at 2300 feet AGL
broken clouds at 7000 feet AGL
Weather: no significant weather observed at this time

METAR text: GMME 180400Z VRB01KT 9999 SCT023 BKN070 13/11 Q1013 NOSIG
Conditions at: GMME (RABAT/SALE (RMAF, MA) observed 0400 UTC 18 April 2019
Temperature: 13.0°C (55°F)
Dewpoint: 11.0°C (52°F) [RH = 88%]
Pressure (altimeter): 29.91 inches Hg (1013.0 mb)
Winds: variable direction winds at 1 MPH (1 knots; 0.5 m/s)
Visibility: 6 or more miles (10+ km)
Ceiling: 7000 feet AGL
Clouds: scattered clouds at 2300 feet AGL
broken clouds at 7000 feet AGL
Weather: no significant weather observed at this time

METAR text: GMME 180330Z VRB02KT 9999 SCT023 BKN070 13/11 Q1013 NOSIG
Conditions at: GMME (RABAT/SALE (RMAF, MA) observed 0330 UTC 18 April 2019
Temperature: 13.0°C (55°F)
Dewpoint: 11.0°C (52°F) [RH = 88%]
Pressure (altimeter): 29.91 inches Hg (1013.0 mb)
Winds: variable direction winds at 2 MPH (2 knots; 1.0 m/s)
Visibility: 6 or more miles (10+ km)
Ceiling: 7000 feet AGL
Clouds: scattered clouds at 2300 feet AGL
broken clouds at 7000 feet AGL
Weather: no significant weather observed at this time

METAR text: GMME 180300Z 00000KT 9999 SCT023 BKN070 14/12 Q1013 NOSIG
Conditions at: GMME (RABAT/SALE (RMAF, MA) observed 0300 UTC 18 April 2019
Temperature: 14.0°C (57°F)
Dewpoint: 12.0°C (54°F) [RH = 88%]
Pressure (altimeter): 29.91 inches Hg (1013.0 mb)
Winds: calm
Visibility: 6 or more miles (10+ km)
Ceiling: 7000 feet AGL
Clouds: scattered clouds at 2300 feet AGL
broken clouds at 7000 feet AGL
Weather: no significant weather observed at this time

Forecast for: GMME (RABAT/SALE (RMAF, MA)
Text: TAF GMME 191100Z 1912/2018 26010KT 8000 SCT015 SCT020 BKN100
Forecast period: 1200 UTC 19 April 2019 to 1800 UTC 20 April 2019
Forecast type: FROM: standard forecast or significant change
Winds: from the W (260 degrees) at 12 MPH (10 knots; 5.1 m/s)
Visibility: 5 miles (8 km)
Ceiling: 10000 feet AGL
Clouds: scattered clouds at 1500 feet AGL
scattered clouds at 2000 feet AGL
broken clouds at 10000 feet AGL
Weather: no significant weather forecast for this period
Text: TEMPO 1922/2013 34006KT
Forecast period: 2200 UTC 19 April 2019 to 1300 UTC 20 April 2019
Forecast type: TEMPORARY: The following changes expected for less than half the time period
Winds: from the NNW (340 degrees) at 7 MPH (6 knots; 3.1 m/s)
Visibility: missing
Ceiling: unknown
Clouds: missing
Weather: no significant weather forecast for this period